• Join FlightAware (Why Join?)
  • Login
  • US Flag 
02:01PM EDT


 

Airport Tracker/Info


-or-


 

Live Flight TrackerFlight Track Log ✈ EIA5169 ✈ 04-Aug-2009 ✈ PANC - RJGG / NGO

Flight Track Log - Related Links

Times and Time Zones

All times are in EDT time to prevent confusion due to time zone crossing. See the EIA5169 flight status page for this flight to view local times or setup timezone preferences in your user account.

Time Position Orientation Groundspeed Altitude Reporting Facility
EDT Latitude Longitude Course Direction KTS MPH feet Rate Location/Type
04:51PM 61.2667 -150.4000 270° West 290 334 7,800  Level Anchorage Center
04:52PM 61.2667 -150.5670 270° West 300 345 10,800 2,340 Climbing Anchorage Center
04:53PM 61.2667 -150.7670 270° West 360 414 12,600 2,520 Climbing Anchorage Center
04:54PM 61.2667 -150.9830 270° West 380 437 15,900 2,820 Climbing Anchorage Center
04:55PM 61.2667 -151.2170 270° West 390 449 18,300 2,220 Climbing Anchorage Center
04:56PM 61.2667 -151.4500 270° West 400 460 20,400 2,040 Climbing Anchorage Center
04:57PM 61.2667 -151.6830 277° West 420 483 22,400 1,920 Climbing Anchorage Center
04:58PM 61.2833 -151.9830 270° West 440 506 24,300 1,740 Climbing Anchorage Center
04:59PM 61.2833 -152.2330 270° West 440 506 26,000 1,500 Climbing Anchorage Center
05:00PM 61.2833 -152.5000 270° West 460 529 27,400 1,500 Climbing Anchorage Center
05:01PM 61.2833 -152.7670 270° West 460 529 29,000 1,440 Climbing Anchorage Center
05:02PM 61.2833 -153.0330 270° West 470 541 30,300 1,260 Climbing Anchorage Center
05:03PM 61.2833 -153.3170 270° West 480 552 31,600 1,320 Climbing Anchorage Center
05:04PM 61.2833 -153.6170 263° West 490 564 33,000 1,200 Climbing Anchorage Center
05:05PM 61.2667 -153.9000 270° West 470 541 34,100 1,020 Climbing Anchorage Center
05:06PM 61.2667 -154.1670 270° West 470 541 35,100 900 Climbing Anchorage Center
05:07PM 61.2667 -154.4330 270° West 470 541 36,000 420 Climbing Anchorage Center
05:08PM 61.2667 -154.7170 270° West 480 552 36,000  Level Anchorage Center
05:09PM 61.2667 -155.0000 263° West 490 564 36,000  Level Anchorage Center
05:10PM 61.2500 -155.2830 270° West 480 552 36,000  Level Anchorage Center
05:11PM 61.2500 -155.5500 270° West 490 564 36,000  Level Anchorage Center
05:12PM 61.2500 -155.8330 270° West 490 564 36,000  Level Anchorage Center
05:13PM 61.2500 -155.8830 270° West 480 552 36,000  Level Anchorage Center
05:13PM 61.2500 -156.1170 270° West 480 552 36,000  Level Anchorage Center
05:14PM 61.2500 -156.4000 270° West 490 564 36,000  Level Anchorage Center
05:15PM 61.2500 -156.6830 270° West 500 575 36,000  Level Anchorage Center
05:16PM 61.2500 -156.9830 270° West 500 575 36,000  Level Anchorage Center
05:17PM 61.2500 -157.2670 270° West 500 575 36,000  Level Anchorage Center
05:18PM 61.2500 -157.5500 270° West 500 575 36,000  Level Anchorage Center
05:19PM 61.2500 -157.8500 263° West 500 575 36,000  Level Anchorage Center
05:20PM 61.2333 -158.1330 270° West 490 564 36,000  Level Anchorage Center
05:21PM 61.2333 -158.4170 270° West 500 575 36,000  Level Anchorage Center
05:22PM 61.2333 -158.7670 270° West 500 575 36,000  Level Anchorage Center
05:23PM 61.2333 -159.0670 270° West 510 587 36,000  Level Anchorage Center
05:24PM 61.2333 -159.3500 263° West 500 575 36,000  Level Anchorage Center
05:25PM 61.2167 -159.6330 270° West 500 575 36,000  Level Anchorage Center
05:26PM 61.2167 -159.9330 263° West 490 564 36,000  Level Anchorage Center
05:27PM 61.2000 -160.2170 270° West 500 575 36,000  Level Anchorage Center
05:28PM 61.2000 -160.5000 263° West 500 575 36,000  Level Anchorage Center
05:29PM 61.1833 -160.7830 270° West 480 552 36,000  Level Anchorage Center
05:30PM 61.1833 -161.0670 264° West 500 575 36,000  Level Anchorage Center
05:31PM 61.1667 -161.3670 270° West 510 587 36,000  Level Anchorage Center
05:32PM 61.1667 -161.6500 263° West 500 575 36,000  Level Anchorage Center
05:33PM 61.1500 -161.9330 264° West 510 587 36,000  Level Anchorage Center
05:34PM 61.1333 -162.2330 270° West 500 575 36,000  Level Anchorage Center
05:35PM 61.1333 -162.5170 264° West 500 575 36,000  Level Anchorage Center
05:36PM 61.1167 -162.8170 263° West 490 564 36,000  Level Anchorage Center
05:37PM 61.1000 -163.1000 249° West 490 564 36,000  Level Anchorage Center
05:38PM 61.0500 -163.3670 253° West 490 564 36,000  Level Anchorage Center
05:39PM 61.0167 -163.6500 249° West 490 564  Descending Anchorage Center
05:40PM 60.9667 -163.9170 256° West 500 575 36,000 17,820 Climbing Anchorage Center
05:41PM 60.9333 -164.2000 256° West 490 564 36,000  Level Anchorage Center
05:42PM 60.9000 -164.4670 249° West 490 564 36,000  Level Anchorage Center
05:43PM 60.8500 -164.7330 257° West 490 564 36,000  Level Anchorage Center
05:44PM 60.8167 -165.0170 249° West 490 564 36,000  Level Anchorage Center
05:45PM 60.7667 -165.2830 249° West 490 564 36,000  Level Anchorage Center
05:46PM 60.7167 -165.5500 256° West 490 564 36,000  Level Anchorage Center
05:47PM 60.6833 -165.8170 256° West 490 564 36,000  Level Anchorage Center
05:48PM 60.6500 -166.0830 249° West 490 564 36,000  Level Anchorage Center
05:49PM 60.6000 -166.3500 249° West 490 564 36,000  Level Anchorage Center
05:50PM 60.5500 -166.6170 250° West 500 575 36,000  Level Anchorage Center
05:52PM 60.5000 -166.9000 249° West 500 575 36,000  Level Anchorage Center
05:53PM 60.4500 -167.1670 256° West 510 587 36,000  Level Anchorage Center
05:54PM 60.4167 -167.4330 248° West 510 587 36,000  Level Anchorage Center
05:55PM 60.3500 -167.7670 250° West 520 598 36,000  Level Anchorage Center
05:56PM 60.3000 -168.0500 249° West 510 587 36,000  Level Anchorage Center
05:57PM 60.2500 -168.3170 249° West 510 587 36,000  Level Anchorage Center
05:58PM 60.2000 -168.5830 249° West 510 587 36,000  Level Anchorage Center
05:59PM 60.1500 -168.8500 251° West 510 587 36,000  Level Anchorage Center
06:00PM 60.1000 -169.1330 250° West 510 587 36,000  Level Anchorage Center
06:01PM 60.0500 -169.4000 250° West 510 587 36,000  Level Anchorage Center
06:02PM 60.0000 -169.6670 248° West 500 575 36,000  Level Anchorage Center
06:03PM 59.9500 -169.9170 244° Southwest 500 575 36,000  Level Anchorage Center
06:04PM 59.8833 -170.1830 251° West 500 575 36,000  Level Anchorage Center
06:05PM 59.8333 -170.4670 248° West 500 575 36,000  Level Anchorage Center
06:06PM 59.7833 -170.7170 250° West 490 564 36,000  Level Anchorage Center
06:07PM 59.7333 -170.9830 242° Southwest 500 575 36,000  Level Anchorage Center
06:08PM 59.6667 -171.2330 249° West 500 575 36,000  Level Anchorage Center
06:09PM 59.6167 -171.4830 249° West 490 564 36,000  Level Anchorage Center
06:10PM 59.5667 -171.7330 249° West 500 575 36,000  Level Anchorage Center
06:11PM 59.5167 -171.9830 249° West 490 564 36,000  Level Anchorage Center
06:12PM 59.4667 -172.2330 249° West 490 564 36,000  Level Anchorage Center
06:13PM 59.4167 -172.4830 242° Southwest 490 564 36,000  Level Anchorage Center
06:14PM 59.3500 -172.7330 250° West 490 564 36,000  Level Anchorage Center
06:15PM 59.3000 -173.0000 249° West 500 575 36,000  Level Anchorage Center
06:16PM 59.2500 -173.2500 249° West 500 575 36,000  Level Anchorage Center
06:17PM 59.2000 -173.5000 249° West 500 575 36,000  Level Anchorage Center
06:18PM 59.1500 -173.7500 243° Southwest 510 587 36,000  Level Anchorage Center
06:19PM 59.0833 -174.0000 249° West 490 564 36,000  Level Anchorage Center
06:20PM 59.0333 -174.2500 249° West 500 575 36,000  Level Anchorage Center
06:21PM 58.9833 -174.5000 243° Southwest 500 575 36,000  Level Anchorage Center
06:22PM 58.9167 -174.7500 249° West 500 575 36,000  Level Anchorage Center
06:23PM 58.8667 -175.0000 249° West 490 564 36,000  Level Anchorage Center
06:24PM 58.8167 -175.2500 241° Southwest 500 575 36,000  Level Anchorage Center
06:25PM 58.7500 -175.4830 249° West 500 575 36,000  Level Anchorage Center
06:26PM 58.7000 -175.7330 243° Southwest 500 575 36,000  Level Anchorage Center
06:27PM 58.6333 -175.9830 249° West 510 587 36,000  Level Anchorage Center
06:28PM 58.5833 -176.2330 243° Southwest 510 587 36,000  Level Anchorage Center
06:29PM 58.5167 -176.4830 243° Southwest 510 587 36,000  Level Anchorage Center
06:30PM 58.4500 -176.7330 249° West 520 598 36,000  Level Anchorage Center
06:31PM 58.4000 -176.9830 243° Southwest 530 610 36,000  Level Anchorage Center
06:32PM 58.3333 -177.2330 245° Southwest 510 587 36,000  Level Anchorage Center
07:06PM 55.9833 174.8500 238° Southwest 480 552 36,000  Level Anchorage Center
07:08PM 55.8500 174.4670 237° Southwest 520 598 36,000 180 Level Anchorage Center
07:09PM 55.7833 174.2830 238° Southwest 520 598 36,500 960 Climbing Anchorage Center
07:10PM 55.7000 174.0500 242° Southwest 500 575 38,000 720 Climbing Anchorage Center
07:11PM 55.6333 173.8330 235° Southwest 490 564 38,000  Level Anchorage Center
07:12PM 55.5667 173.6670 236° Southwest 490 564 38,000  Level Anchorage Center
07:13PM 55.4833 173.4500 237° Southwest 480 552 38,000  Level Anchorage Center
07:14PM 55.4167 173.2670 234° Southwest 480 552 38,000  Level Anchorage Center
07:15PM 55.3333 173.0670 238° Southwest 480 552 38,000  Level Anchorage Center
07:16PM 55.2667 172.8830 242° Southwest 490 564 38,000  Level Anchorage Center
07:17PM 55.2000 172.6670 236° Southwest 490 564 38,000  Level Anchorage Center
07:18PM 55.1167 172.4500 235° Southwest 490 564 38,000  Level Anchorage Center
07:19PM 55.0500 172.2830 236° Southwest 490 564 38,000  Level Anchorage Center
07:20PM 54.9667 172.0670 235° Southwest 490 564 38,000  Level Anchorage Center
07:21PM 54.9000 171.9000 229° Southwest 500 575 38,000  Level Anchorage Center
07:22PM 54.8000 171.7000 235° Southwest 480 552 38,000  Level Anchorage Center
07:23PM 54.7333 171.5330 236° Southwest 480 552 38,000  Level Anchorage Center
07:24PM 54.6500 171.3170 234° Southwest 490 564 38,000  Level Anchorage Center
07:25PM 54.5667 171.1170 236° Southwest 480 552 38,000  Level Anchorage Center
07:26PM 54.5000 170.9500 234° Southwest 490 564 38,000  Level Anchorage Center
07:27PM 54.4167 170.7500 233° Southwest 480 552 38,000  Level Anchorage Center
07:28PM 54.3500 170.6000 232° Southwest 470 541 38,000  Level Anchorage Center
07:29PM 54.2500 170.3830 235° Southwest 510 587 38,000  Level Anchorage Center
07:30PM 54.1667 170.1830 233° Southwest 490 564 38,000  Level Anchorage Center
07:31PM 54.1000 170.0330 230° Southwest 500 575 38,000  Level Anchorage Center
07:32PM 54.0000 169.8330 236° Southwest 490 564 38,000  Level Anchorage Center
07:33PM 53.9333 169.6670 235° Southwest 480 552 38,000  Level Anchorage Center
07:34PM 53.8500 169.4670 233° Southwest 480 552 38,000  Level Anchorage Center
07:35PM 53.7833 169.3170 232° Southwest 490 564 38,000  Level Anchorage Center
07:36PM 53.6833 169.1000 247° West 500 575 38,000  Level Anchorage Center
07:37PM 53.6333 168.9000 236° Southwest 470 541 38,000  Level Anchorage Center
07:38PM 53.5667 168.7330 243° Southwest 480 552 38,000  Level Anchorage Center
07:39PM 53.5000 168.5170 241° Southwest 470 541 38,000  Level Anchorage Center
07:40PM 53.4500 168.3670 241° Southwest 460 529 -38,040 Descending Anchorage Center